sensor_id;sensor_type;location;lat;lon;timestamp;P1;durP1;ratioP1;P2;durP2;ratioP2
78854;SDS011;68206;59.956;30.234;2023-05-07T00:02:07;5.57;;;2.70;;
78854;SDS011;68206;59.956;30.234;2023-05-07T00:04:36;8.00;;;2.83;;
78854;SDS011;68206;59.956;30.234;2023-05-07T00:07:05;5.45;;;2.90;;
78854;SDS011;68206;59.956;30.234;2023-05-07T00:09:33;4.28;;;2.47;;
78854;SDS011;68206;59.956;30.234;2023-05-07T00:12:01;5.50;;;3.03;;
78854;SDS011;68206;59.956;30.234;2023-05-07T00:14:30;3.95;;;2.60;;
78854;SDS011;68206;59.956;30.234;2023-05-07T00:16:58;4.25;;;2.50;;
78854;SDS011;68206;59.956;30.234;2023-05-07T00:19:28;4.80;;;2.70;;
78854;SDS011;68206;59.956;30.234;2023-05-07T00:21:56;3.65;;;2.63;;
78854;SDS011;68206;59.956;30.234;2023-05-07T00:24:24;5.47;;;3.28;;
78854;SDS011;68206;59.956;30.234;2023-05-07T00:26:53;4.97;;;2.67;;
78854;SDS011;68206;59.956;30.234;2023-05-07T00:29:21;6.82;;;2.55;;
78854;SDS011;68206;59.956;30.234;2023-05-07T00:31:49;4.18;;;2.55;;
78854;SDS011;68206;59.956;30.234;2023-05-07T00:34:18;6.50;;;2.53;;
78854;SDS011;68206;59.956;30.234;2023-05-07T00:36:48;6.18;;;2.75;;
78854;SDS011;68206;59.956;30.234;2023-05-07T00:39:16;4.88;;;3.20;;
78854;SDS011;68206;59.956;30.234;2023-05-07T00:41:44;7.28;;;2.72;;
78854;SDS011;68206;59.956;30.234;2023-05-07T00:44:13;4.90;;;3.03;;
78854;SDS011;68206;59.956;30.234;2023-05-07T00:46:41;4.53;;;2.88;;
78854;SDS011;68206;59.956;30.234;2023-05-07T00:49:09;5.05;;;2.97;;
78854;SDS011;68206;59.956;30.234;2023-05-07T00:51:37;3.72;;;2.50;;
78854;SDS011;68206;59.956;30.234;2023-05-07T00:54:07;5.45;;;2.72;;
78854;SDS011;68206;59.956;30.234;2023-05-07T00:56:35;7.72;;;2.78;;
78854;SDS011;68206;59.956;30.234;2023-05-07T00:59:04;5.18;;;2.60;;
78854;SDS011;68206;59.956;30.234;2023-05-07T01:01:34;5.82;;;3.28;;
78854;SDS011;68206;59.956;30.234;2023-05-07T01:04:04;8.10;;;3.10;;
78854;SDS011;68206;59.956;30.234;2023-05-07T01:06:32;3.47;;;2.65;;
78854;SDS011;68206;59.956;30.234;2023-05-07T01:09:01;4.03;;;2.50;;
78854;SDS011;68206;59.956;30.234;2023-05-07T01:11:32;6.13;;;2.85;;
78854;SDS011;68206;59.956;30.234;2023-05-07T01:14:00;6.60;;;2.55;;
78854;SDS011;68206;59.956;30.234;2023-05-07T01:16:29;3.55;;;2.42;;
78854;SDS011;68206;59.956;30.234;2023-05-07T01:18:57;9.60;;;2.72;;
78854;SDS011;68206;59.956;30.234;2023-05-07T01:21:26;5.53;;;3.00;;
78854;SDS011;68206;59.956;30.234;2023-05-07T01:23:58;10.65;;;3.88;;
78854;SDS011;68206;59.956;30.234;2023-05-07T01:26:28;7.20;;;3.47;;
78854;SDS011;68206;59.956;30.234;2023-05-07T01:28:56;10.85;;;3.17;;
78854;SDS011;68206;59.956;30.234;2023-05-07T01:31:24;9.30;;;3.03;;
78854;SDS011;68206;59.956;30.234;2023-05-07T01:33:53;6.38;;;3.13;;
78854;SDS011;68206;59.956;30.234;2023-05-07T01:36:22;8.52;;;3.65;;
78854;SDS011;68206;59.956;30.234;2023-05-07T01:38:53;9.35;;;3.10;;
78854;SDS011;68206;59.956;30.234;2023-05-07T01:41:25;7.72;;;3.28;;
78854;SDS011;68206;59.956;30.234;2023-05-07T01:43:54;7.28;;;3.08;;
78854;SDS011;68206;59.956;30.234;2023-05-07T01:46:22;11.00;;;3.53;;
78854;SDS011;68206;59.956;30.234;2023-05-07T01:48:51;5.28;;;3.25;;
78854;SDS011;68206;59.956;30.234;2023-05-07T01:51:20;5.65;;;2.95;;
78854;SDS011;68206;59.956;30.234;2023-05-07T01:53:49;6.22;;;3.13;;
78854;SDS011;68206;59.956;30.234;2023-05-07T01:56:18;9.60;;;2.90;;
78854;SDS011;68206;59.956;30.234;2023-05-07T01:58:49;6.43;;;2.83;;
78854;SDS011;68206;59.956;30.234;2023-05-07T02:01:19;9.82;;;2.80;;
78854;SDS011;68206;59.956;30.234;2023-05-07T02:03:48;5.47;;;2.67;;
78854;SDS011;68206;59.956;30.234;2023-05-07T02:06:22;4.97;;;2.35;;
78854;SDS011;68206;59.956;30.234;2023-05-07T02:08:54;6.30;;;2.45;;
78854;SDS011;68206;59.956;30.234;2023-05-07T02:11:22;4.25;;;2.65;;
78854;SDS011;68206;59.956;30.234;2023-05-07T02:13:53;3.22;;;2.38;;
78854;SDS011;68206;59.956;30.234;2023-05-07T02:16:21;3.65;;;2.40;;
78854;SDS011;68206;59.956;30.234;2023-05-07T02:18:50;4.63;;;2.10;;
78854;SDS011;68206;59.956;30.234;2023-05-07T02:21:18;3.78;;;2.53;;
78854;SDS011;68206;59.956;30.234;2023-05-07T02:23:47;5.15;;;2.28;;
78854;SDS011;68206;59.956;30.234;2023-05-07T02:26:15;3.70;;;2.65;;
78854;SDS011;68206;59.956;30.234;2023-05-07T02:28:43;5.25;;;2.55;;
78854;SDS011;68206;59.956;30.234;2023-05-07T02:31:13;3.78;;;2.40;;
78854;SDS011;68206;59.956;30.234;2023-05-07T02:33:41;5.88;;;2.42;;
78854;SDS011;68206;59.956;30.234;2023-05-07T02:36:10;3.58;;;2.38;;
78854;SDS011;68206;59.956;30.234;2023-05-07T02:38:48;3.67;;;2.30;;
78854;SDS011;68206;59.956;30.234;2023-05-07T02:41:18;6.70;;;2.80;;
78854;SDS011;68206;59.956;30.234;2023-05-07T02:43:46;4.93;;;2.40;;
78854;SDS011;68206;59.956;30.234;2023-05-07T02:46:17;4.07;;;2.10;;
78854;SDS011;68206;59.956;30.234;2023-05-07T02:48:50;3.25;;;2.10;;
78854;SDS011;68206;59.956;30.234;2023-05-07T02:51:19;4.70;;;2.05;;
78854;SDS011;68206;59.956;30.234;2023-05-07T02:53:53;3.65;;;2.30;;
78854;SDS011;68206;59.956;30.234;2023-05-07T02:56:22;4.72;;;2.25;;
78854;SDS011;68206;59.956;30.234;2023-05-07T02:58:50;7.25;;;2.20;;
78854;SDS011;68206;59.956;30.234;2023-05-07T03:01:22;4.57;;;1.95;;
78854;SDS011;68206;59.956;30.234;2023-05-07T03:04:03;3.28;;;2.05;;
78854;SDS011;68206;59.956;30.234;2023-05-07T03:06:32;3.63;;;2.13;;
78854;SDS011;68206;59.956;30.234;2023-05-07T03:09:00;5.05;;;2.25;;
78854;SDS011;68206;59.956;30.234;2023-05-07T03:11:29;3.53;;;2.13;;
78854;SDS011;68206;59.956;30.234;2023-05-07T03:13:57;5.07;;;2.10;;
78854;SDS011;68206;59.956;30.234;2023-05-07T03:16:26;7.18;;;1.83;;
78854;SDS011;68206;59.956;30.234;2023-05-07T03:18:54;3.53;;;1.85;;
78854;SDS011;68206;59.956;30.234;2023-05-07T03:21:23;3.65;;;1.92;;
78854;SDS011;68206;59.956;30.234;2023-05-07T03:23:53;2.97;;;2.00;;
78854;SDS011;68206;59.956;30.234;2023-05-07T03:26:21;5.20;;;2.22;;
78854;SDS011;68206;59.956;30.234;2023-05-07T03:28:49;5.68;;;2.60;;
78854;SDS011;68206;59.956;30.234;2023-05-07T03:31:17;4.57;;;2.22;;
78854;SDS011;68206;59.956;30.234;2023-05-07T03:33:52;5.15;;;2.83;;
78854;SDS011;68206;59.956;30.234;2023-05-07T03:36:23;5.30;;;2.10;;
78854;SDS011;68206;59.956;30.234;2023-05-07T03:38:54;6.40;;;2.33;;
78854;SDS011;68206;59.956;30.234;2023-05-07T03:41:25;5.38;;;2.10;;
78854;SDS011;68206;59.956;30.234;2023-05-07T03:43:53;4.50;;;2.20;;
78854;SDS011;68206;59.956;30.234;2023-05-07T03:46:21;4.30;;;2.45;;
78854;SDS011;68206;59.956;30.234;2023-05-07T03:48:54;4.97;;;2.80;;
78854;SDS011;68206;59.956;30.234;2023-05-07T03:51:22;3.55;;;2.05;;
78854;SDS011;68206;59.956;30.234;2023-05-07T03:53:51;4.43;;;2.15;;
78854;SDS011;68206;59.956;30.234;2023-05-07T03:56:20;4.07;;;2.50;;
78854;SDS011;68206;59.956;30.234;2023-05-07T03:58:53;10.43;;;2.97;;
78854;SDS011;68206;59.956;30.234;2023-05-07T04:01:21;4.45;;;2.08;;
78854;SDS011;68206;59.956;30.234;2023-05-07T04:03:50;4.95;;;2.22;;
78854;SDS011;68206;59.956;30.234;2023-05-07T04:06:20;3.95;;;1.90;;
78854;SDS011;68206;59.956;30.234;2023-05-07T04:08:48;3.42;;;2.20;;
78854;SDS011;68206;59.956;30.234;2023-05-07T04:11:17;7.07;;;2.50;;
78854;SDS011;68206;59.956;30.234;2023-05-07T04:13:45;5.85;;;2.58;;
78854;SDS011;68206;59.956;30.234;2023-05-07T04:16:16;4.50;;;2.17;;
78854;SDS011;68206;59.956;30.234;2023-05-07T04:18:44;6.72;;;2.50;;
78854;SDS011;68206;59.956;30.234;2023-05-07T04:21:16;4.57;;;2.33;;
78854;SDS011;68206;59.956;30.234;2023-05-07T04:23:47;4.47;;;2.25;;
78854;SDS011;68206;59.956;30.234;2023-05-07T04:26:16;4.90;;;2.17;;
78854;SDS011;68206;59.956;30.234;2023-05-07T04:28:45;3.78;;;2.15;;
78854;SDS011;68206;59.956;30.234;2023-05-07T04:31:14;7.90;;;2.33;;
78854;SDS011;68206;59.956;30.234;2023-05-07T04:33:45;4.93;;;2.00;;
78854;SDS011;68206;59.956;30.234;2023-05-07T04:36:14;6.22;;;2.10;;
78854;SDS011;68206;59.956;30.234;2023-05-07T04:38:49;3.95;;;1.95;;
78854;SDS011;68206;59.956;30.234;2023-05-07T04:41:19;6.90;;;2.30;;
78854;SDS011;68206;59.956;30.234;2023-05-07T04:43:47;2.83;;;1.65;;
78854;SDS011;68206;59.956;30.234;2023-05-07T04:46:17;3.20;;;1.88;;
78854;SDS011;68206;59.956;30.234;2023-05-07T04:48:48;6.00;;;2.47;;
78854;SDS011;68206;59.956;30.234;2023-05-07T04:51:16;4.00;;;2.08;;
78854;SDS011;68206;59.956;30.234;2023-05-07T04:53:44;8.32;;;2.17;;
78854;SDS011;68206;59.956;30.234;2023-05-07T04:56:13;4.50;;;1.80;;
78854;SDS011;68206;59.956;30.234;2023-05-07T04:58:44;2.63;;;1.80;;
78854;SDS011;68206;59.956;30.234;2023-05-07T05:01:13;3.65;;;1.92;;
78854;SDS011;68206;59.956;30.234;2023-05-07T05:03:42;6.55;;;2.42;;
78854;SDS011;68206;59.956;30.234;2023-05-07T05:06:10;4.32;;;2.13;;
78854;SDS011;68206;59.956;30.234;2023-05-07T05:08:38;4.88;;;1.75;;
78854;SDS011;68206;59.956;30.234;2023-05-07T05:11:08;3.10;;;1.92;;
78854;SDS011;68206;59.956;30.234;2023-05-07T05:13:38;3.13;;;1.60;;
78854;SDS011;68206;59.956;30.234;2023-05-07T05:16:16;4.22;;;1.88;;
78854;SDS011;68206;59.956;30.234;2023-05-07T05:18:44;3.35;;;1.80;;
78854;SDS011;68206;59.956;30.234;2023-05-07T05:21:15;4.32;;;1.83;;
78854;SDS011;68206;59.956;30.234;2023-05-07T05:23:46;4.28;;;2.10;;
78854;SDS011;68206;59.956;30.234;2023-05-07T05:26:19;6.55;;;2.35;;
78854;SDS011;68206;59.956;30.234;2023-05-07T05:28:49;7.53;;;2.10;;
78854;SDS011;68206;59.956;30.234;2023-05-07T05:32:51;7.28;;;2.50;;
78854;SDS011;68206;59.956;30.234;2023-05-07T05:35:19;3.60;;;2.10;;
78854;SDS011;68206;59.956;30.234;2023-05-07T05:37:48;6.40;;;2.40;;
78854;SDS011;68206;59.956;30.234;2023-05-07T05:40:17;4.97;;;2.15;;
78854;SDS011;68206;59.956;30.234;2023-05-07T05:42:46;4.28;;;2.35;;
78854;SDS011;68206;59.956;30.234;2023-05-07T05:45:15;6.70;;;1.90;;
78854;SDS011;68206;59.956;30.234;2023-05-07T05:47:44;3.67;;;2.05;;
78854;SDS011;68206;59.956;30.234;2023-05-07T05:50:14;3.58;;;1.90;;
78854;SDS011;68206;59.956;30.234;2023-05-07T05:52:43;7.68;;;2.20;;
78854;SDS011;68206;59.956;30.234;2023-05-07T05:55:11;5.95;;;2.30;;
78854;SDS011;68206;59.956;30.234;2023-05-07T05:57:40;6.50;;;2.13;;
78854;SDS011;68206;59.956;30.234;2023-05-07T06:00:09;4.30;;;2.08;;
78854;SDS011;68206;59.956;30.234;2023-05-07T06:02:48;3.72;;;1.77;;
78854;SDS011;68206;59.956;30.234;2023-05-07T06:05:23;2.35;;;1.70;;
78854;SDS011;68206;59.956;30.234;2023-05-07T06:07:54;2.50;;;1.83;;
78854;SDS011;68206;59.956;30.234;2023-05-07T06:10:23;2.47;;;1.80;;
78854;SDS011;68206;59.956;30.234;2023-05-07T06:12:53;3.30;;;2.08;;
78854;SDS011;68206;59.956;30.234;2023-05-07T06:15:22;3.50;;;2.10;;
78854;SDS011;68206;59.956;30.234;2023-05-07T06:17:50;3.90;;;2.10;;
78854;SDS011;68206;59.956;30.234;2023-05-07T06:20:18;4.05;;;1.98;;
78854;SDS011;68206;59.956;30.234;2023-05-07T06:22:48;3.85;;;2.03;;
78854;SDS011;68206;59.956;30.234;2023-05-07T06:25:16;6.68;;;2.00;;
78854;SDS011;68206;59.956;30.234;2023-05-07T06:27:45;5.07;;;2.00;;
78854;SDS011;68206;59.956;30.234;2023-05-07T06:30:13;4.30;;;1.70;;
78854;SDS011;68206;59.956;30.234;2023-05-07T06:32:41;2.55;;;1.90;;
78854;SDS011;68206;59.956;30.234;2023-05-07T06:35:11;4.18;;;1.92;;
78854;SDS011;68206;59.956;30.234;2023-05-07T06:37:40;3.55;;;2.00;;
78854;SDS011;68206;59.956;30.234;2023-05-07T06:40:16;8.65;;;2.58;;
78854;SDS011;68206;59.956;30.234;2023-05-07T06:42:46;4.93;;;2.10;;
78854;SDS011;68206;59.956;30.234;2023-05-07T06:45:27;4.72;;;2.42;;
78854;SDS011;68206;59.956;30.234;2023-05-07T06:47:56;2.95;;;1.90;;
78854;SDS011;68206;59.956;30.234;2023-05-07T06:50:25;5.57;;;1.90;;
78854;SDS011;68206;59.956;30.234;2023-05-07T06:52:56;2.58;;;1.77;;
78854;SDS011;68206;59.956;30.234;2023-05-07T06:55:26;2.92;;;1.90;;
78854;SDS011;68206;59.956;30.234;2023-05-07T06:57:55;4.95;;;2.17;;
78854;SDS011;68206;59.956;30.234;2023-05-07T07:00:25;5.30;;;2.10;;
78854;SDS011;68206;59.956;30.234;2023-05-07T07:02:55;2.53;;;1.73;;
78854;SDS011;68206;59.956;30.234;2023-05-07T07:05:26;3.35;;;2.00;;
78854;SDS011;68206;59.956;30.234;2023-05-07T07:07:55;2.92;;;2.10;;
78854;SDS011;68206;59.956;30.234;2023-05-07T07:10:26;4.13;;;1.88;;
78854;SDS011;68206;59.956;30.234;2023-05-07T07:12:55;4.63;;;2.17;;
78854;SDS011;68206;59.956;30.234;2023-05-07T07:15:23;5.13;;;2.00;;
78854;SDS011;68206;59.956;30.234;2023-05-07T07:17:54;4.72;;;1.67;;
78854;SDS011;68206;59.956;30.234;2023-05-07T07:20:23;4.45;;;1.70;;
78854;SDS011;68206;59.956;30.234;2023-05-07T07:22:51;3.40;;;1.90;;
78854;SDS011;68206;59.956;30.234;2023-05-07T07:25:20;3.70;;;2.08;;
78854;SDS011;68206;59.956;30.234;2023-05-07T07:27:49;5.55;;;1.98;;
78854;SDS011;68206;59.956;30.234;2023-05-07T07:30:19;4.93;;;2.15;;
78854;SDS011;68206;59.956;30.234;2023-05-07T07:32:48;3.83;;;1.88;;
78854;SDS011;68206;59.956;30.234;2023-05-07T07:35:16;6.70;;;1.95;;
78854;SDS011;68206;59.956;30.234;2023-05-07T07:37:45;6.18;;;2.10;;
78854;SDS011;68206;59.956;30.234;2023-05-07T07:40:13;5.78;;;2.00;;
78854;SDS011;68206;59.956;30.234;2023-05-07T07:42:43;10.65;;;2.17;;
78854;SDS011;68206;59.956;30.234;2023-05-07T07:45:13;9.05;;;2.28;;
78854;SDS011;68206;59.956;30.234;2023-05-07T07:47:45;3.65;;;2.15;;
78854;SDS011;68206;59.956;30.234;2023-05-07T07:50:13;3.05;;;1.80;;
78854;SDS011;68206;59.956;30.234;2023-05-07T07:52:58;5.72;;;2.55;;
78854;SDS011;68206;59.956;30.234;2023-05-07T07:55:27;8.70;;;3.40;;
78854;SDS011;68206;59.956;30.234;2023-05-07T08:00:30;7.43;;;2.92;;
78854;SDS011;68206;59.956;30.234;2023-05-07T08:02:58;4.80;;;2.28;;
78854;SDS011;68206;59.956;30.234;2023-05-07T08:05:31;4.55;;;2.13;;
78854;SDS011;68206;59.956;30.234;2023-05-07T08:08:01;4.82;;;2.35;;
78854;SDS011;68206;59.956;30.234;2023-05-07T08:10:32;10.68;;;2.38;;
78854;SDS011;68206;59.956;30.234;2023-05-07T08:13:12;4.85;;;2.20;;
78854;SDS011;68206;59.956;30.234;2023-05-07T08:15:43;3.10;;;1.88;;
78854;SDS011;68206;59.956;30.234;2023-05-07T08:18:12;2.50;;;1.75;;
78854;SDS011;68206;59.956;30.234;2023-05-07T08:20:40;2.30;;;1.50;;
78854;SDS011;68206;59.956;30.234;2023-05-07T08:23:13;4.10;;;2.20;;
78854;SDS011;68206;59.956;30.234;2023-05-07T08:25:43;4.20;;;2.05;;
78854;SDS011;68206;59.956;30.234;2023-05-07T08:28:13;2.22;;;1.60;;
78854;SDS011;68206;59.956;30.234;2023-05-07T08:30:43;4.78;;;2.38;;
78854;SDS011;68206;59.956;30.234;2023-05-07T08:33:11;3.60;;;1.77;;
78854;SDS011;68206;59.956;30.234;2023-05-07T08:35:39;4.55;;;2.10;;
78854;SDS011;68206;59.956;30.234;2023-05-07T08:38:08;5.22;;;1.88;;
78854;SDS011;68206;59.956;30.234;2023-05-07T08:40:37;2.80;;;1.80;;
78854;SDS011;68206;59.956;30.234;2023-05-07T08:43:13;3.50;;;1.80;;
78854;SDS011;68206;59.956;30.234;2023-05-07T08:45:45;3.15;;;1.70;;
78854;SDS011;68206;59.956;30.234;2023-05-07T08:48:16;3.10;;;2.17;;
78854;SDS011;68206;59.956;30.234;2023-05-07T08:50:51;5.18;;;2.10;;
78854;SDS011;68206;59.956;30.234;2023-05-07T08:53:20;3.08;;;1.83;;
78854;SDS011;68206;59.956;30.234;2023-05-07T08:55:49;3.95;;;1.70;;
78854;SDS011;68206;59.956;30.234;2023-05-07T08:58:17;3.55;;;2.55;;
78854;SDS011;68206;59.956;30.234;2023-05-07T09:00:47;5.13;;;1.65;;
78854;SDS011;68206;59.956;30.234;2023-05-07T09:03:16;3.42;;;1.90;;
78854;SDS011;68206;59.956;30.234;2023-05-07T09:05:48;4.03;;;1.70;;
78854;SDS011;68206;59.956;30.234;2023-05-07T09:08:18;2.95;;;1.50;;
78854;SDS011;68206;59.956;30.234;2023-05-07T09:10:47;2.20;;;1.50;;
78854;SDS011;68206;59.956;30.234;2023-05-07T09:13:17;2.17;;;1.70;;
78854;SDS011;68206;59.956;30.234;2023-05-07T09:15:47;2.67;;;1.70;;
78854;SDS011;68206;59.956;30.234;2023-05-07T09:18:16;3.65;;;1.75;;
78854;SDS011;68206;59.956;30.234;2023-05-07T09:20:46;2.72;;;1.33;;
78854;SDS011;68206;59.956;30.234;2023-05-07T09:23:18;2.40;;;1.65;;
78854;SDS011;68206;59.956;30.234;2023-05-07T09:25:46;2.15;;;1.58;;
78854;SDS011;68206;59.956;30.234;2023-05-07T09:28:24;2.75;;;2.10;;
78854;SDS011;68206;59.956;30.234;2023-05-07T09:30:54;2.20;;;1.52;;
78854;SDS011;68206;59.956;30.234;2023-05-07T09:33:26;2.92;;;1.70;;
78854;SDS011;68206;59.956;30.234;2023-05-07T09:35:56;1.80;;;1.30;;
78854;SDS011;68206;59.956;30.234;2023-05-07T09:38:24;3.40;;;1.95;;
78854;SDS011;68206;59.956;30.234;2023-05-07T09:41:07;5.35;;;2.05;;
78854;SDS011;68206;59.956;30.234;2023-05-07T09:43:54;3.13;;;1.98;;
78854;SDS011;68206;59.956;30.234;2023-05-07T09:46:30;3.05;;;1.70;;
78854;SDS011;68206;59.956;30.234;2023-05-07T09:49:05;2.90;;;1.63;;
78854;SDS011;68206;59.956;30.234;2023-05-07T09:51:38;7.13;;;1.77;;
78854;SDS011;68206;59.956;30.234;2023-05-07T09:54:10;6.18;;;1.70;;
78854;SDS011;68206;59.956;30.234;2023-05-07T09:56:42;3.33;;;1.70;;
78854;SDS011;68206;59.956;30.234;2023-05-07T09:59:12;2.33;;;1.55;;
78854;SDS011;68206;59.956;30.234;2023-05-07T10:01:45;2.05;;;1.33;;
78854;SDS011;68206;59.956;30.234;2023-05-07T10:04:15;3.78;;;1.63;;
78854;SDS011;68206;59.956;30.234;2023-05-07T10:06:45;3.30;;;1.55;;
78854;SDS011;68206;59.956;30.234;2023-05-07T10:09:14;3.08;;;1.83;;
78854;SDS011;68206;59.956;30.234;2023-05-07T10:11:43;4.22;;;1.73;;
78854;SDS011;68206;59.956;30.234;2023-05-07T10:14:12;5.50;;;1.63;;
78854;SDS011;68206;59.956;30.234;2023-05-07T10:16:42;7.38;;;2.15;;
78854;SDS011;68206;59.956;30.234;2023-05-07T10:19:16;2.83;;;1.60;;
78854;SDS011;68206;59.956;30.234;2023-05-07T10:21:51;5.63;;;1.70;;
78854;SDS011;68206;59.956;30.234;2023-05-07T10:24:25;2.45;;;1.48;;
78854;SDS011;68206;59.956;30.234;2023-05-07T10:26:56;1.98;;;1.35;;
78854;SDS011;68206;59.956;30.234;2023-05-07T10:29:29;3.88;;;1.75;;
78854;SDS011;68206;59.956;30.234;2023-05-07T10:32:14;3.13;;;1.92;;
78854;SDS011;68206;59.956;30.234;2023-05-07T10:34:58;3.22;;;1.40;;
78854;SDS011;68206;59.956;30.234;2023-05-07T10:37:31;2.92;;;1.40;;
78854;SDS011;68206;59.956;30.234;2023-05-07T10:40:00;1.98;;;1.30;;
78854;SDS011;68206;59.956;30.234;2023-05-07T10:42:31;2.50;;;1.48;;
78854;SDS011;68206;59.956;30.234;2023-05-07T10:45:11;2.10;;;1.33;;
78854;SDS011;68206;59.956;30.234;2023-05-07T10:51:19;3.42;;;1.70;;
78854;SDS011;68206;59.956;30.234;2023-05-07T11:03:17;3.95;;;1.60;;
78854;SDS011;68206;59.956;30.234;2023-05-07T11:06:10;1.63;;;1.15;;
78854;SDS011;68206;59.956;30.234;2023-05-07T11:08:55;2.40;;;1.20;;
78854;SDS011;68206;59.956;30.234;2023-05-07T11:11:46;2.75;;;1.48;;
78854;SDS011;68206;59.956;30.234;2023-05-07T11:14:43;5.50;;;1.33;;
78854;SDS011;68206;59.956;30.234;2023-05-07T11:17:33;5.22;;;1.38;;
78854;SDS011;68206;59.956;30.234;2023-05-07T11:20:06;3.35;;;1.40;;
78854;SDS011;68206;59.956;30.234;2023-05-07T11:22:47;2.65;;;1.35;;
78854;SDS011;68206;59.956;30.234;2023-05-07T11:25:31;2.20;;;1.30;;
78854;SDS011;68206;59.956;30.234;2023-05-07T11:28:10;6.10;;;1.63;;
78854;SDS011;68206;59.956;30.234;2023-05-07T11:30:45;2.65;;;1.30;;
78854;SDS011;68206;59.956;30.234;2023-05-07T11:33:16;3.20;;;1.30;;
78854;SDS011;68206;59.956;30.234;2023-05-07T11:35:48;4.45;;;1.45;;
78854;SDS011;68206;59.956;30.234;2023-05-07T11:38:20;3.47;;;1.13;;
78854;SDS011;68206;59.956;30.234;2023-05-07T11:40:50;2.30;;;1.67;;
78854;SDS011;68206;59.956;30.234;2023-05-07T11:43:19;2.70;;;1.40;;
78854;SDS011;68206;59.956;30.234;2023-05-07T11:45:47;2.13;;;1.50;;
78854;SDS011;68206;59.956;30.234;2023-05-07T11:48:16;2.40;;;1.40;;
78854;SDS011;68206;59.956;30.234;2023-05-07T11:50:51;2.00;;;1.30;;
78854;SDS011;68206;59.956;30.234;2023-05-07T11:53:20;1.73;;;1.45;;
78854;SDS011;68206;59.956;30.234;2023-05-07T11:55:54;4.30;;;1.50;;
78854;SDS011;68206;59.956;30.234;2023-05-07T11:58:23;2.70;;;1.70;;
78854;SDS011;68206;59.956;30.234;2023-05-07T12:00:53;5.97;;;2.20;;
78854;SDS011;68206;59.956;30.234;2023-05-07T12:03:21;3.42;;;1.58;;
78854;SDS011;68206;59.956;30.234;2023-05-07T12:05:49;2.17;;;1.30;;
78854;SDS011;68206;59.956;30.234;2023-05-07T12:08:18;1.83;;;1.40;;
78854;SDS011;68206;59.956;30.234;2023-05-07T12:10:48;2.78;;;1.10;;
78854;SDS011;68206;59.956;30.234;2023-05-07T12:13:19;2.88;;;1.50;;
78854;SDS011;68206;59.956;30.234;2023-05-07T12:15:50;3.05;;;1.45;;
78854;SDS011;68206;59.956;30.234;2023-05-07T12:18:18;3.80;;;1.38;;
78854;SDS011;68206;59.956;30.234;2023-05-07T12:20:48;4.80;;;1.35;;
78854;SDS011;68206;59.956;30.234;2023-05-07T12:23:17;2.78;;;1.30;;
78854;SDS011;68206;59.956;30.234;2023-05-07T12:25:46;5.30;;;1.70;;
78854;SDS011;68206;59.956;30.234;2023-05-07T12:28:14;5.10;;;1.83;;
78854;SDS011;68206;59.956;30.234;2023-05-07T12:30:45;3.90;;;1.85;;
78854;SDS011;68206;59.956;30.234;2023-05-07T12:33:16;3.67;;;1.33;;
78854;SDS011;68206;59.956;30.234;2023-05-07T12:35:44;2.50;;;1.65;;
78854;SDS011;68206;59.956;30.234;2023-05-07T12:38:13;5.35;;;1.63;;
78854;SDS011;68206;59.956;30.234;2023-05-07T12:40:44;2.28;;;1.50;;
78854;SDS011;68206;59.956;30.234;2023-05-07T12:43:17;2.28;;;1.40;;
78854;SDS011;68206;59.956;30.234;2023-05-07T12:45:48;2.20;;;1.50;;
78854;SDS011;68206;59.956;30.234;2023-05-07T12:48:17;3.42;;;1.40;;
78854;SDS011;68206;59.956;30.234;2023-05-07T12:50:48;2.58;;;1.40;;
78854;SDS011;68206;59.956;30.234;2023-05-07T12:53:19;2.20;;;1.33;;
78854;SDS011;68206;59.956;30.234;2023-05-07T12:55:49;4.30;;;1.40;;
78854;SDS011;68206;59.956;30.234;2023-05-07T12:58:18;2.40;;;1.60;;
78854;SDS011;68206;59.956;30.234;2023-05-07T13:00:49;5.80;;;1.73;;
78854;SDS011;68206;59.956;30.234;2023-05-07T13:03:21;4.35;;;1.77;;
78854;SDS011;68206;59.956;30.234;2023-05-07T13:05:52;2.83;;;1.27;;
78854;SDS011;68206;59.956;30.234;2023-05-07T13:08:25;7.40;;;1.75;;
78854;SDS011;68206;59.956;30.234;2023-05-07T13:10:58;5.18;;;1.30;;
78854;SDS011;68206;59.956;30.234;2023-05-07T13:13:30;4.38;;;1.60;;
78854;SDS011;68206;59.956;30.234;2023-05-07T13:16:00;1.90;;;1.30;;
78854;SDS011;68206;59.956;30.234;2023-05-07T13:18:30;3.08;;;1.50;;
78854;SDS011;68206;59.956;30.234;2023-05-07T13:20:59;2.20;;;1.60;;
78854;SDS011;68206;59.956;30.234;2023-05-07T13:23:28;3.20;;;1.60;;
78854;SDS011;68206;59.956;30.234;2023-05-07T13:25:56;2.60;;;1.70;;
78854;SDS011;68206;59.956;30.234;2023-05-07T13:28:24;2.90;;;1.73;;
78854;SDS011;68206;59.956;30.234;2023-05-07T13:30:53;2.08;;;1.48;;
78854;SDS011;68206;59.956;30.234;2023-05-07T13:33:23;2.47;;;1.50;;
78854;SDS011;68206;59.956;30.234;2023-05-07T13:35:52;2.35;;;1.60;;
78854;SDS011;68206;59.956;30.234;2023-05-07T13:38:20;4.45;;;1.63;;
78854;SDS011;68206;59.956;30.234;2023-05-07T13:40:50;3.55;;;1.60;;
78854;SDS011;68206;59.956;30.234;2023-05-07T13:43:18;2.92;;;1.80;;
78854;SDS011;68206;59.956;30.234;2023-05-07T13:45:46;3.22;;;1.80;;
78854;SDS011;68206;59.956;30.234;2023-05-07T13:48:17;3.17;;;1.52;;
78854;SDS011;68206;59.956;30.234;2023-05-07T13:50:46;6.38;;;1.90;;
78854;SDS011;68206;59.956;30.234;2023-05-07T13:53:14;5.13;;;1.92;;
78854;SDS011;68206;59.956;30.234;2023-05-07T13:55:44;6.18;;;2.30;;
78854;SDS011;68206;59.956;30.234;2023-05-07T13:58:13;2.92;;;1.73;;
78854;SDS011;68206;59.956;30.234;2023-05-07T14:00:41;3.88;;;1.77;;
78854;SDS011;68206;59.956;30.234;2023-05-07T14:03:10;4.95;;;1.95;;
78854;SDS011;68206;59.956;30.234;2023-05-07T14:05:38;4.93;;;2.10;;
78854;SDS011;68206;59.956;30.234;2023-05-07T14:08:08;2.95;;;1.95;;
78854;SDS011;68206;59.956;30.234;2023-05-07T14:10:37;2.67;;;1.67;;
78854;SDS011;68206;59.956;30.234;2023-05-07T14:13:06;7.05;;;1.70;;
78854;SDS011;68206;59.956;30.234;2023-05-07T14:15:34;5.72;;;1.95;;
78854;SDS011;68206;59.956;30.234;2023-05-07T14:18:03;4.38;;;1.98;;
78854;SDS011;68206;59.956;30.234;2023-05-07T14:20:31;4.47;;;1.80;;
78854;SDS011;68206;59.956;30.234;2023-05-07T14:22:59;2.67;;;1.67;;
78854;SDS011;68206;59.956;30.234;2023-05-07T14:25:29;9.32;;;2.00;;
78854;SDS011;68206;59.956;30.234;2023-05-07T14:27:57;3.95;;;1.38;;
78854;SDS011;68206;59.956;30.234;2023-05-07T14:30:25;4.38;;;1.60;;
78854;SDS011;68206;59.956;30.234;2023-05-07T14:32:53;2.58;;;1.58;;
78854;SDS011;68206;59.956;30.234;2023-05-07T14:35:22;1.98;;;1.33;;
78854;SDS011;68206;59.956;30.234;2023-05-07T14:37:50;2.75;;;1.60;;
78854;SDS011;68206;59.956;30.234;2023-05-07T14:40:18;6.78;;;1.77;;
78854;SDS011;68206;59.956;30.234;2023-05-07T14:42:47;3.88;;;1.75;;
78854;SDS011;68206;59.956;30.234;2023-05-07T14:45:15;3.40;;;1.63;;
78854;SDS011;68206;59.956;30.234;2023-05-07T14:47:44;5.82;;;1.85;;
78854;SDS011;68206;59.956;30.234;2023-05-07T14:50:12;4.93;;;1.60;;
78854;SDS011;68206;59.956;30.234;2023-05-07T14:52:40;4.30;;;1.50;;
78854;SDS011;68206;59.956;30.234;2023-05-07T14:55:08;1.65;;;1.25;;
78854;SDS011;68206;59.956;30.234;2023-05-07T14:57:36;5.72;;;1.73;;
78854;SDS011;68206;59.956;30.234;2023-05-07T15:00:07;6.18;;;1.90;;
78854;SDS011;68206;59.956;30.234;2023-05-07T15:02:37;1.77;;;1.35;;
78854;SDS011;68206;59.956;30.234;2023-05-07T15:05:06;3.30;;;1.65;;
78854;SDS011;68206;59.956;30.234;2023-05-07T15:07:35;7.75;;;1.77;;
78854;SDS011;68206;59.956;30.234;2023-05-07T15:10:03;2.75;;;1.80;;